Faith, Minnesota
Current Conditions -  °F | °C
As of 8:35 PM on Sunday 25 Jan 2015 (Local Time) from K3N8 Reporting Station
Overcast Overcast  
Wind Chill: 12°   Ceiling: 1700
Heat Index: 23°   Visibility: 10mi
Dew Point: 18°   Wind: 12mph
Humidity: 80%   Direction: 200°SSW
Pressure: 29.88"   Gusts: NA
Location:  47.2382°N, 96.2513°W
Report Text: K3N8 260235Z AUTO 20010KT 10SM OVC017 M05/M08 A2988 RMK AO2 T10501079
Loading
Personal Weather Stations






























Interactive Weather Map New forecast layout! Learn more

10-Day Weather Forecast

Advertisements
Track Severe Weather on mobile